createdAt,value
2018-03-01T00:01:35.030Z,-7.90
2018-03-01T00:04:01.211Z,-7.90
2018-03-01T00:06:28.179Z,-7.90
2018-03-01T00:08:54.370Z,-7.90
2018-03-01T00:11:21.330Z,-7.90
2018-03-01T00:13:48.287Z,-7.90
2018-03-01T00:16:14.510Z,-7.90
2018-03-01T00:18:41.497Z,-7.90
2018-03-01T00:21:08.460Z,-7.90
2018-03-01T00:23:34.778Z,-7.90
2018-03-01T00:26:01.003Z,-7.90
2018-03-01T00:28:27.263Z,-7.90
2018-03-01T00:30:53.482Z,-8.00
2018-03-01T00:33:19.681Z,-8.00
2018-03-01T00:35:45.944Z,-8.00
2018-03-01T00:38:12.137Z,-7.90
2018-03-01T00:40:38.387Z,-8.00
2018-03-01T00:43:04.594Z,-8.00
2018-03-01T00:45:30.808Z,-7.90
2018-03-01T00:47:57.038Z,-8.00
2018-03-01T00:50:23.235Z,-8.00
2018-03-01T00:52:50.173Z,-8.00
2018-03-01T00:55:16.353Z,-8.00
2018-03-01T00:57:43.094Z,-8.00
2018-03-01T01:00:09.307Z,-7.90
2018-03-01T01:02:35.551Z,-7.90
2018-03-01T01:05:01.797Z,-7.90
2018-03-01T01:07:28.011Z,-7.90
2018-03-01T01:09:54.332Z,-8.00
2018-03-01T01:12:20.575Z,-7.90
2018-03-01T01:14:46.838Z,-8.00
2018-03-01T01:17:13.057Z,-8.00
2018-03-01T01:19:39.221Z,-8.00
2018-03-01T01:22:06.163Z,-8.00
2018-03-01T01:24:33.084Z,-8.00
2018-03-01T01:26:59.278Z,-8.00
2018-03-01T01:29:25.496Z,-8.00
2018-03-01T01:31:51.695Z,-8.00
2018-03-01T01:34:18.644Z,-8.00
2018-03-01T01:36:45.581Z,-8.00
2018-03-01T01:39:12.524Z,-8.00
2018-03-01T01:41:39.474Z,-8.00
2018-03-01T01:44:05.663Z,-8.00
2018-03-01T01:46:31.878Z,-8.00
2018-03-01T01:48:58.065Z,-8.00
2018-03-01T01:51:25.006Z,-8.00
2018-03-01T01:53:51.926Z,-8.00
2018-03-01T01:56:18.149Z,-8.00
2018-03-01T01:58:44.378Z,-8.00
2018-03-01T02:01:10.595Z,-8.00
2018-03-01T02:03:36.786Z,-8.10
2018-03-01T02:06:03.062Z,-8.10
2018-03-01T02:08:29.267Z,-8.10
2018-03-01T02:10:55.459Z,-8.00
2018-03-01T02:13:22.444Z,-8.10
2018-03-01T02:15:48.653Z,-8.10
2018-03-01T02:18:14.920Z,-8.00
2018-03-01T02:20:41.132Z,-8.00
2018-03-01T02:23:07.309Z,-8.00
2018-03-01T02:25:34.264Z,-8.10
2018-03-01T02:28:01.187Z,-8.10
2018-03-01T02:30:27.390Z,-8.10
2018-03-01T02:32:53.679Z,-8.10
2018-03-01T02:35:19.928Z,-8.00
2018-03-01T02:37:46.172Z,-8.00
2018-03-01T02:40:12.429Z,-8.00
2018-03-01T02:42:38.660Z,-8.00
2018-03-01T02:45:04.872Z,-8.10
2018-03-01T02:47:31.073Z,-8.10
2018-03-01T02:49:57.304Z,-8.10
2018-03-01T02:52:23.525Z,-8.10
2018-03-01T02:54:49.698Z,-8.10
2018-03-01T02:57:16.010Z,-8.00
2018-03-01T02:59:42.368Z,-8.00
2018-03-01T03:02:08.578Z,-8.00
2018-03-01T03:04:34.764Z,-8.10
2018-03-01T03:07:00.965Z,-8.10
2018-03-01T03:09:27.948Z,-8.10
2018-03-01T03:11:54.151Z,-8.10
2018-03-01T03:14:21.147Z,-8.10
2018-03-01T03:16:47.388Z,-8.10
2018-03-01T03:19:13.615Z,-8.10
2018-03-01T03:21:39.832Z,-8.00
2018-03-01T03:24:06.083Z,-8.00
2018-03-01T03:26:32.321Z,-8.00
2018-03-01T03:28:58.600Z,-8.10
2018-03-01T03:31:24.839Z,-8.00
2018-03-01T03:33:51.014Z,-8.10
2018-03-01T03:36:17.223Z,-8.10
2018-03-01T03:38:44.178Z,-8.10
2018-03-01T03:41:10.401Z,-8.10
2018-03-01T03:43:36.797Z,-8.00
2018-03-01T03:46:02.993Z,-8.00
2018-03-01T03:48:29.956Z,-8.10
2018-03-01T03:50:56.192Z,-8.10
2018-03-01T03:53:22.435Z,-8.00
2018-03-01T03:55:48.733Z,-8.00
2018-03-01T03:58:15.676Z,-8.00
2018-03-01T04:00:42.874Z,-8.00
2018-03-01T04:03:09.113Z,-8.00
2018-03-01T04:05:35.483Z,-8.00
2018-03-01T04:08:01.667Z,-8.00
2018-03-01T04:10:27.922Z,-8.00
2018-03-01T04:12:54.184Z,-8.00
2018-03-01T04:15:21.121Z,-7.90
2018-03-01T04:17:48.047Z,-8.00
2018-03-01T04:20:14.284Z,-8.00
2018-03-01T04:22:40.482Z,-8.00
2018-03-01T04:25:06.723Z,-8.00
2018-03-01T04:27:32.922Z,-8.00
2018-03-01T04:29:59.116Z,-8.00
2018-03-01T04:32:26.062Z,-8.00
2018-03-01T04:34:53.083Z,-8.00
2018-03-01T04:37:19.304Z,-8.00
2018-03-01T04:39:45.498Z,-8.00
2018-03-01T04:42:11.737Z,-8.00
2018-03-01T04:44:37.969Z,-8.00
2018-03-01T04:47:04.191Z,-8.00
2018-03-01T04:49:30.434Z,-8.00
2018-03-01T04:51:56.669Z,-8.00
2018-03-01T04:54:22.890Z,-8.00
2018-03-01T04:56:49.173Z,-8.00
2018-03-01T04:59:16.238Z,-8.00
2018-03-01T05:01:42.668Z,-8.00
2018-03-01T05:04:08.893Z,-8.00
2018-03-01T05:06:35.099Z,-8.00
2018-03-01T05:09:01.274Z,-8.00
2018-03-01T05:11:27.528Z,-8.00
2018-03-01T05:13:53.746Z,-8.00
2018-03-01T05:16:20.036Z,-8.00
2018-03-01T05:18:46.359Z,-8.00
2018-03-01T05:21:13.310Z,-8.00
2018-03-01T05:23:39.588Z,-8.00
2018-03-01T05:26:05.777Z,-8.00
2018-03-01T05:28:32.009Z,-8.00
2018-03-01T05:34:01.286Z,-8.00
2018-03-01T05:36:27.490Z,-8.00
2018-03-01T05:38:53.715Z,-8.00
2018-03-01T05:41:19.951Z,-8.00
2018-03-01T05:43:46.265Z,-8.00
2018-03-01T05:46:12.553Z,-8.00
2018-03-01T05:48:38.787Z,-8.10
2018-03-01T05:51:05.001Z,-8.10
2018-03-01T05:53:32.011Z,-8.10
2018-03-01T05:55:58.197Z,-8.10
2018-03-01T05:58:24.468Z,-8.10
2018-03-01T06:00:50.737Z,-8.10
2018-03-01T06:03:16.950Z,-8.10
2018-03-01T06:05:43.141Z,-8.10
2018-03-01T06:08:09.407Z,-8.10
2018-03-01T06:10:35.591Z,-8.10
2018-03-01T06:13:02.519Z,-8.10
2018-03-01T06:15:29.601Z,-8.10
2018-03-01T06:17:56.557Z,-8.10
2018-03-01T06:20:22.762Z,-8.10
2018-03-01T06:22:50.344Z,-8.10
2018-03-01T06:25:16.548Z,-8.10
2018-03-01T06:27:51.898Z,-8.10
2018-03-01T06:30:27.569Z,-8.10
2018-03-01T06:32:53.896Z,-8.00
2018-03-01T06:35:20.096Z,-8.00
2018-03-01T06:37:47.054Z,-8.00
2018-03-01T06:40:13.251Z,-8.00
2018-03-01T06:42:39.538Z,-8.00
2018-03-01T06:45:05.797Z,-8.00
2018-03-01T06:47:32.065Z,-8.00
2018-03-01T06:49:59.177Z,-8.10
2018-03-01T06:52:25.381Z,-8.00
2018-03-01T06:54:51.596Z,-8.00
2018-03-01T06:57:17.821Z,-8.00
2018-03-01T06:59:44.057Z,-7.90
2018-03-01T07:02:10.298Z,-8.00
2018-03-01T07:04:37.344Z,-8.00
2018-03-01T07:07:03.860Z,-8.00
2018-03-01T07:09:30.066Z,-8.00
2018-03-01T07:11:57.036Z,-8.00
2018-03-01T07:14:23.237Z,-8.00
2018-03-01T07:16:50.193Z,-7.90
2018-03-01T07:19:17.186Z,-7.90
2018-03-01T07:21:43.383Z,-8.00
2018-03-01T07:24:09.605Z,-8.00
2018-03-01T07:26:36.596Z,-7.90
2018-03-01T07:29:02.860Z,-7.90
2018-03-01T07:31:29.118Z,-7.90
2018-03-01T07:33:55.315Z,-7.90
2018-03-01T07:36:22.276Z,-7.80
2018-03-01T07:38:49.245Z,-7.80
2018-03-01T07:41:15.456Z,-7.90
2018-03-01T07:43:41.641Z,-7.80
2018-03-01T07:46:07.922Z,-7.80
2018-03-01T07:48:34.147Z,-7.80
2018-03-01T07:51:00.324Z,-7.80
2018-03-01T07:53:26.676Z,-7.80
2018-03-01T07:55:52.944Z,-7.70
2018-03-01T07:58:20.779Z,-7.70
2018-03-01T08:00:47.799Z,-7.70
2018-03-01T08:03:14.087Z,-7.70
2018-03-01T08:05:40.300Z,-7.70
2018-03-01T08:08:07.265Z,-7.60
2018-03-01T08:10:33.503Z,-7.60
2018-03-01T08:12:59.690Z,-7.50
2018-03-01T08:15:26.644Z,-7.50
2018-03-01T08:17:53.554Z,-7.40
2018-03-01T08:20:19.807Z,-7.40
2018-03-01T08:22:46.746Z,-7.40
2018-03-01T08:25:12.999Z,-7.30
2018-03-01T08:27:39.959Z,-7.20
2018-03-01T08:30:06.202Z,-7.20
2018-03-01T08:32:32.415Z,-7.10
2018-03-01T08:34:58.630Z,-7.00
2018-03-01T08:37:25.639Z,-6.80
2018-03-01T08:39:51.800Z,-6.80
2018-03-01T08:42:18.729Z,-6.60
2018-03-01T08:44:44.976Z,-6.60
2018-03-01T08:47:11.941Z,-6.40
2018-03-01T08:49:38.147Z,-6.40
2018-03-01T08:52:16.011Z,-6.30
2018-03-01T08:54:42.397Z,-6.30
2018-03-01T08:57:08.632Z,-6.20
2018-03-01T08:59:34.857Z,-6.20
2018-03-01T09:02:01.062Z,-6.10
2018-03-01T09:04:28.005Z,-5.90
2018-03-01T09:06:54.946Z,-5.80
2018-03-01T09:09:21.235Z,-5.80
2018-03-01T09:11:47.436Z,-5.70
2018-03-01T09:14:13.776Z,-5.70
2018-03-01T09:16:40.017Z,-5.60
2018-03-01T09:19:06.409Z,-5.60
2018-03-01T09:21:32.747Z,-5.60
2018-03-01T09:23:59.677Z,-5.40
2018-03-01T09:26:26.774Z,-5.40
2018-03-01T09:28:52.997Z,-5.40
2018-03-01T09:31:19.259Z,-5.40
2018-03-01T09:33:45.438Z,-5.30
2018-03-01T09:36:11.669Z,-5.30
2018-03-01T09:38:37.948Z,-5.20
2018-03-01T09:41:04.178Z,-5.20
2018-03-01T09:43:30.611Z,-5.20
2018-03-01T09:45:56.834Z,-5.20
2018-03-01T09:48:23.051Z,-5.20
2018-03-01T09:50:49.230Z,-5.10
2018-03-01T09:53:16.175Z,-5.00
2018-03-01T09:55:43.250Z,-4.90
2018-03-01T09:58:09.475Z,-5.00
2018-03-01T10:00:35.726Z,-4.90
2018-03-01T10:03:01.971Z,-4.90
2018-03-01T10:05:28.196Z,-4.90
2018-03-01T10:07:54.386Z,-4.80
2018-03-01T10:10:20.562Z,-4.80
2018-03-01T10:12:46.819Z,-4.70
2018-03-01T10:15:13.836Z,-4.70
2018-03-01T10:17:40.129Z,-4.70
2018-03-01T10:20:06.377Z,-4.70
2018-03-01T10:22:32.629Z,-4.60
2018-03-01T10:24:58.848Z,-4.60
2018-03-01T10:27:25.849Z,-4.50
2018-03-01T10:29:52.051Z,-4.50
2018-03-01T10:32:18.284Z,-4.50
2018-03-01T10:34:45.230Z,-4.40
2018-03-01T10:37:12.237Z,-4.40
2018-03-01T10:39:38.418Z,-4.40
2018-03-01T10:42:05.365Z,-4.30
2018-03-01T10:44:31.580Z,-4.40
2018-03-01T10:46:58.524Z,-4.30
2018-03-01T10:49:25.451Z,-4.20
2018-03-01T10:51:51.666Z,-4.30
2018-03-01T10:54:17.917Z,-4.20
2018-03-01T10:56:44.153Z,-4.20
2018-03-01T10:59:11.219Z,-4.10
2018-03-01T11:01:38.253Z,-4.10
2018-03-01T11:04:05.280Z,-4.00
2018-03-01T11:06:31.471Z,-4.00
2018-03-01T11:08:57.701Z,-4.00
2018-03-01T11:11:23.995Z,-4.00
2018-03-01T11:13:50.267Z,-3.90
2018-03-01T11:16:16.521Z,-3.90
2018-03-01T11:18:43.074Z,-3.90
2018-03-01T11:21:09.349Z,-3.80
2018-03-01T11:23:35.608Z,-3.80
2018-03-01T11:26:01.893Z,-3.80
2018-03-01T11:28:28.194Z,-3.70
2018-03-01T11:30:54.460Z,-3.60
2018-03-01T11:33:20.707Z,-3.60
2018-03-01T11:35:46.935Z,-3.60
2018-03-01T11:38:13.172Z,-3.50
2018-03-01T11:40:39.440Z,-3.50
2018-03-01T11:43:06.407Z,-3.50
2018-03-01T11:45:33.447Z,-3.40
2018-03-01T11:48:00.419Z,-3.40
2018-03-01T11:50:26.672Z,-3.40
2018-03-01T11:52:52.952Z,-3.30
2018-03-01T11:55:19.204Z,-3.30
2018-03-01T11:57:45.449Z,-3.20
2018-03-01T12:00:11.693Z,-3.20
2018-03-01T12:02:38.011Z,-3.20
2018-03-01T12:05:04.251Z,-3.10
2018-03-01T12:07:30.483Z,-3.10
2018-03-01T12:09:56.758Z,-3.00
2018-03-01T12:12:23.702Z,-3.00
2018-03-01T12:14:50.671Z,-3.00
2018-03-01T12:17:16.921Z,-3.00
2018-03-01T12:19:43.315Z,-2.90
2018-03-01T12:22:10.290Z,-2.80
2018-03-01T12:24:36.667Z,-2.90
2018-03-01T12:27:02.953Z,-2.80
2018-03-01T12:29:29.195Z,-2.80
2018-03-01T12:31:55.538Z,-2.80
2018-03-01T12:34:21.792Z,-2.80
2018-03-01T12:36:48.005Z,-2.80
2018-03-01T12:39:14.318Z,-2.70
2018-03-01T12:41:40.549Z,-2.70
2018-03-01T12:44:06.781Z,-2.60
2018-03-01T12:46:32.998Z,-2.60
2018-03-01T12:48:59.225Z,-2.60
2018-03-01T12:51:25.478Z,-2.50
2018-03-01T12:53:51.718Z,-2.50
2018-03-01T12:56:17.986Z,-2.40
2018-03-01T12:58:44.253Z,-2.40
2018-03-01T13:01:10.535Z,-2.40
2018-03-01T13:03:37.628Z,-2.30
2018-03-01T13:06:03.915Z,-2.30
2018-03-01T13:08:30.930Z,-2.30
2018-03-01T13:10:57.199Z,-2.30
2018-03-01T13:13:24.219Z,-2.20
2018-03-01T13:15:50.442Z,-2.20
2018-03-01T13:18:16.677Z,-2.10
2018-03-01T13:20:43.190Z,-2.10
2018-03-01T13:23:09.470Z,-2.10
2018-03-01T13:25:36.455Z,-2.10
2018-03-01T13:28:02.762Z,-2.10
2018-03-01T13:30:31.034Z,-2.10
2018-03-01T13:32:57.296Z,-2.10
2018-03-01T13:35:23.605Z,-2.10
2018-03-01T13:37:49.856Z,-2.00
2018-03-01T13:40:16.093Z,-2.00
2018-03-01T13:45:42.079Z,-2.00
2018-03-01T13:48:09.136Z,-1.90
2018-03-01T13:50:36.200Z,-1.90
2018-03-01T13:53:02.466Z,-1.90
2018-03-01T13:55:28.734Z,-1.80
2018-03-01T13:57:55.886Z,-1.80
2018-03-01T14:00:22.932Z,-1.90
2018-03-01T14:02:49.973Z,-1.80
2018-03-01T14:05:16.219Z,-1.90
2018-03-01T14:10:36.220Z,-1.80
2018-03-01T14:13:14.089Z,-1.80
2018-03-01T14:15:41.242Z,-1.80
2018-03-01T14:18:10.327Z,-1.80
2018-03-01T14:20:43.176Z,-1.80
2018-03-01T14:23:24.334Z,-1.70
2018-03-01T14:25:57.404Z,-1.70
2018-03-01T14:28:23.636Z,-1.80
2018-03-01T14:30:49.915Z,-1.70
2018-03-01T14:33:16.890Z,-1.80
2018-03-01T14:35:43.291Z,-1.80
2018-03-01T14:38:09.571Z,-1.80
2018-03-01T14:40:35.806Z,-1.70
2018-03-01T14:43:02.097Z,-1.70
2018-03-01T14:45:28.393Z,-1.80
2018-03-01T14:47:54.650Z,-1.80
2018-03-01T14:50:20.859Z,-1.70
2018-03-01T14:52:47.088Z,-1.80
2018-03-01T14:55:13.356Z,-1.70
2018-03-01T14:57:40.407Z,-1.70
2018-03-01T15:00:06.696Z,-1.70
2018-03-01T15:02:32.917Z,-1.70
2018-03-01T15:04:59.908Z,-1.70
2018-03-01T15:07:26.106Z,-1.70
2018-03-01T15:09:52.382Z,-1.60
2018-03-01T15:12:18.585Z,-1.60
2018-03-01T15:14:44.826Z,-1.60
2018-03-01T15:17:11.065Z,-1.10
2018-03-01T15:19:37.401Z,-0.40
2018-03-01T15:22:03.623Z,0.00
2018-03-01T15:24:29.828Z,0.20
2018-03-01T15:26:56.136Z,0.20
2018-03-01T15:29:22.353Z,0.10
2018-03-01T15:31:48.578Z,-0.30
2018-03-01T15:34:15.620Z,-0.90
2018-03-01T15:36:42.790Z,-1.20
2018-03-01T15:39:09.021Z,-1.20
2018-03-01T15:41:35.231Z,-1.40
2018-03-01T15:44:02.212Z,-1.70
2018-03-01T15:46:28.452Z,-1.70
2018-03-01T15:48:54.704Z,-1.80
2018-03-01T15:51:20.943Z,-1.90
2018-03-01T15:53:47.141Z,-2.00
2018-03-01T15:56:13.326Z,-2.00
2018-03-01T15:58:40.281Z,-2.10
2018-03-01T16:01:07.233Z,-2.10
2018-03-01T16:03:34.264Z,-2.20
2018-03-01T16:06:01.227Z,-2.20
2018-03-01T16:08:28.203Z,-2.20
2018-03-01T16:10:54.412Z,-2.20
2018-03-01T16:13:20.632Z,-2.30
2018-03-01T16:15:47.593Z,-2.40
2018-03-01T16:18:14.024Z,-2.40
2018-03-01T16:20:40.775Z,-2.40
2018-03-01T16:23:06.970Z,-2.50
2018-03-01T16:25:33.913Z,-2.60
2018-03-01T16:28:01.138Z,-2.60
2018-03-01T16:30:27.318Z,-2.60
2018-03-01T16:32:53.579Z,-2.60
2018-03-01T16:35:19.774Z,-2.70
2018-03-01T16:37:46.166Z,-2.70
2018-03-01T16:40:12.403Z,-2.70
2018-03-01T16:42:38.731Z,-2.80
2018-03-01T16:45:04.993Z,-2.90
2018-03-01T16:47:31.942Z,-2.90
2018-03-01T16:49:58.164Z,-3.00
2018-03-01T16:52:25.153Z,-3.00
2018-03-01T16:54:51.346Z,-3.00
2018-03-01T16:57:32.512Z,-3.00
2018-03-01T16:59:59.494Z,-3.10
2018-03-01T17:02:25.722Z,-3.10
2018-03-01T17:04:51.964Z,-3.10
2018-03-01T17:07:18.129Z,-3.20
2018-03-01T17:09:44.365Z,-3.20
2018-03-01T17:12:11.342Z,-3.20
2018-03-01T17:14:37.541Z,-3.20
2018-03-01T17:17:04.522Z,-3.30
2018-03-01T17:19:30.724Z,-3.30
2018-03-01T17:21:57.668Z,-3.30
2018-03-01T17:24:24.617Z,-3.30
2018-03-01T17:26:51.947Z,-3.30
2018-03-01T17:29:18.153Z,-3.40
2018-03-01T17:31:44.338Z,-3.40
2018-03-01T17:34:10.630Z,-3.40
2018-03-01T17:36:36.820Z,-3.40
2018-03-01T17:39:03.496Z,-3.40
2018-03-01T17:41:29.705Z,-3.50
2018-03-01T17:43:55.893Z,-3.50
2018-03-01T17:46:23.108Z,-3.50
2018-03-01T17:48:49.327Z,-3.50
2018-03-01T17:51:15.542Z,-3.50
2018-03-01T17:53:41.785Z,-3.50
2018-03-01T17:56:08.837Z,-3.50
2018-03-01T17:58:35.078Z,-3.50
2018-03-01T18:01:01.312Z,-3.60
2018-03-01T18:03:27.549Z,-3.60
2018-03-01T18:05:54.547Z,-3.60
2018-03-01T18:08:20.929Z,-3.60
2018-03-01T18:10:47.851Z,-3.70
2018-03-01T18:13:14.062Z,-3.70
2018-03-01T18:15:40.307Z,-3.70
2018-03-01T18:18:07.290Z,-3.80
2018-03-01T18:20:34.257Z,-3.80
2018-03-01T18:23:00.511Z,-3.80
2018-03-01T18:25:26.745Z,-3.80
2018-03-01T18:27:53.086Z,-3.80
2018-03-01T18:30:19.311Z,-3.80
2018-03-01T18:35:48.894Z,-3.90
2018-03-01T18:38:15.118Z,-3.90
2018-03-01T18:40:41.371Z,-3.90
2018-03-01T18:43:08.587Z,-4.00
2018-03-01T18:45:35.521Z,-4.00
2018-03-01T18:48:01.757Z,-4.00
2018-03-01T18:50:27.991Z,-4.00
2018-03-01T18:52:54.335Z,-4.00
2018-03-01T18:55:20.575Z,-4.00
2018-03-01T18:57:46.777Z,-4.10
2018-03-01T19:00:12.990Z,-4.10
2018-03-01T19:02:39.230Z,-4.10
2018-03-01T19:05:05.539Z,-4.10
2018-03-01T19:07:31.854Z,-4.10
2018-03-01T19:09:58.134Z,-4.10
2018-03-01T19:12:24.438Z,-4.20
2018-03-01T19:14:50.699Z,-4.20
2018-03-01T19:17:17.029Z,-4.20
2018-03-01T19:19:43.597Z,-4.20
2018-03-01T19:22:10.553Z,-4.30
2018-03-01T19:24:36.988Z,-4.30
2018-03-01T19:27:03.250Z,-4.30
2018-03-01T19:29:29.538Z,-4.30
2018-03-01T19:31:56.670Z,-4.30
2018-03-01T19:34:23.021Z,-4.40
2018-03-01T19:36:50.037Z,-4.30
2018-03-01T19:39:16.256Z,-4.40
2018-03-01T19:41:42.487Z,-4.40
2018-03-01T19:44:08.694Z,-4.40
2018-03-01T19:46:34.889Z,-4.40
2018-03-01T19:49:01.168Z,-4.50
2018-03-01T19:51:27.404Z,-4.50
2018-03-01T19:53:53.628Z,-4.50
2018-03-01T19:56:19.849Z,-4.60
2018-03-01T19:58:46.055Z,-4.50
2018-03-01T20:01:12.510Z,-4.60
2018-03-01T20:03:38.733Z,-4.60
2018-03-01T20:06:05.116Z,-4.60
2018-03-01T20:08:32.088Z,-4.60
2018-03-01T20:10:58.360Z,-4.60
2018-03-01T20:13:24.588Z,-4.70
2018-03-01T20:15:50.853Z,-4.70
2018-03-01T20:18:19.313Z,-4.70
2018-03-01T20:20:45.509Z,-4.70
2018-03-01T20:23:11.690Z,-4.70
2018-03-01T20:25:38.696Z,-4.80
2018-03-01T20:28:04.913Z,-4.80
2018-03-01T20:30:31.152Z,-4.80
2018-03-01T20:32:57.378Z,-4.80
2018-03-01T20:35:24.452Z,-4.80
2018-03-01T20:37:50.652Z,-4.90
2018-03-01T20:40:16.892Z,-4.80
2018-03-01T20:42:43.248Z,-4.90
2018-03-01T20:45:09.555Z,-4.80
2018-03-01T20:47:35.763Z,-4.90
2018-03-01T20:50:02.094Z,-4.80
2018-03-01T20:52:28.294Z,-4.90
2018-03-01T20:54:55.417Z,-4.90
2018-03-01T20:57:21.668Z,-5.00
2018-03-01T20:59:48.683Z,-5.00
2018-03-01T21:02:14.898Z,-5.00
2018-03-01T21:04:41.107Z,-5.00
2018-03-01T21:07:07.593Z,-5.00
2018-03-01T21:09:34.672Z,-5.10
2018-03-01T21:12:01.088Z,-5.10
2018-03-01T21:14:27.394Z,-5.10
2018-03-01T21:16:53.656Z,-5.10
2018-03-01T21:19:19.928Z,-5.10
2018-03-01T21:21:46.162Z,-5.10
2018-03-01T21:24:12.431Z,-5.10
2018-03-01T21:26:39.399Z,-5.10
2018-03-01T21:29:05.636Z,-5.10
2018-03-01T21:31:31.892Z,-5.10
2018-03-01T21:33:58.112Z,-5.20
2018-03-01T21:36:24.329Z,-5.20
2018-03-01T21:38:50.574Z,-5.30
2018-03-01T21:41:16.780Z,-5.30
2018-03-01T21:43:43.180Z,-5.30
2018-03-01T21:46:14.094Z,-5.30
2018-03-01T21:48:40.341Z,-5.30
2018-03-01T21:51:07.314Z,-5.30
2018-03-01T21:53:33.558Z,-5.30
2018-03-01T21:55:59.821Z,-5.30
2018-03-01T21:58:26.057Z,-5.40
2018-03-01T22:00:52.366Z,-5.40
2018-03-01T22:03:18.611Z,-5.40
2018-03-01T22:05:44.864Z,-5.40
2018-03-01T22:08:11.799Z,-5.50
2018-03-01T22:10:37.997Z,-5.50
2018-03-01T22:13:04.316Z,-5.50
2018-03-01T22:15:30.551Z,-5.40
2018-03-01T22:17:56.785Z,-5.50
2018-03-01T22:20:23.009Z,-5.50
2018-03-01T22:22:49.429Z,-5.50
2018-03-01T22:25:15.688Z,-5.50
2018-03-01T22:27:41.912Z,-5.50
2018-03-01T22:30:08.220Z,-5.60
2018-03-01T22:32:34.464Z,-5.50
2018-03-01T22:35:00.712Z,-5.60
2018-03-01T22:37:26.954Z,-5.60
2018-03-01T22:39:53.239Z,-5.60
2018-03-01T22:42:19.492Z,-5.60
2018-03-01T22:44:45.758Z,-5.60
2018-03-01T22:47:13.766Z,-5.70
2018-03-01T22:49:40.037Z,-5.70
2018-03-01T22:52:06.312Z,-5.70
2018-03-01T22:54:32.554Z,-5.80
2018-03-01T22:56:58.817Z,-5.80
2018-03-01T22:59:25.085Z,-5.80
2018-03-01T23:01:52.049Z,-5.80
2018-03-01T23:04:18.270Z,-5.80
2018-03-01T23:06:45.225Z,-5.80
2018-03-01T23:09:11.443Z,-5.80
2018-03-01T23:11:38.445Z,-5.80
2018-03-01T23:14:04.761Z,-5.80
2018-03-01T23:16:30.937Z,-5.80
2018-03-01T23:18:57.892Z,-5.80
2018-03-01T23:21:24.929Z,-5.90
2018-03-01T23:23:51.911Z,-5.90
2018-03-01T23:26:18.120Z,-5.90
2018-03-01T23:28:44.368Z,-5.90
2018-03-01T23:31:10.782Z,-5.90
2018-03-01T23:33:37.710Z,-6.00
2018-03-01T23:36:04.682Z,-6.00
2018-03-01T23:38:30.874Z,-5.90
2018-03-01T23:40:57.110Z,-6.00
2018-03-01T23:43:24.141Z,-6.00
2018-03-01T23:45:50.538Z,-6.00
2018-03-01T23:48:16.727Z,-6.00
2018-03-01T23:50:44.071Z,-6.00
2018-03-01T23:53:10.364Z,-6.10
2018-03-01T23:55:36.594Z,-6.00
2018-03-01T23:58:02.823Z,-6.00
